sensor_id;sensor_type;location;lat;lon;timestamp;temperature;humidity
1277;DHT22;631;51.024;13.826;2023-05-10T00:00:38;13.40;49.50
1277;DHT22;631;51.024;13.826;2023-05-10T00:03:04;13.40;49.60
1277;DHT22;631;51.024;13.826;2023-05-10T00:05:31;13.40;49.60
1277;DHT22;631;51.024;13.826;2023-05-10T00:07:57;13.40;49.60
1277;DHT22;631;51.024;13.826;2023-05-10T00:10:22;13.40;49.70
1277;DHT22;631;51.024;13.826;2023-05-10T00:12:48;13.40;49.60
1277;DHT22;631;51.024;13.826;2023-05-10T00:15:14;13.30;49.70
1277;DHT22;631;51.024;13.826;2023-05-10T00:17:39;13.30;50.00
1277;DHT22;631;51.024;13.826;2023-05-10T00:20:06;13.30;50.10
1277;DHT22;631;51.024;13.826;2023-05-10T00:22:32;13.20;50.00
1277;DHT22;631;51.024;13.826;2023-05-10T00:24:58;13.20;50.30
1277;DHT22;631;51.024;13.826;2023-05-10T00:27:24;13.10;50.40
1277;DHT22;631;51.024;13.826;2023-05-10T00:29:49;13.10;50.50
1277;DHT22;631;51.024;13.826;2023-05-10T00:32:15;13.00;50.40
1277;DHT22;631;51.024;13.826;2023-05-10T00:34:41;13.00;50.60
1277;DHT22;631;51.024;13.826;2023-05-10T00:37:07;13.00;50.60
1277;DHT22;631;51.024;13.826;2023-05-10T00:39:32;12.90;50.70
1277;DHT22;631;51.024;13.826;2023-05-10T00:41:58;12.90;50.70
1277;DHT22;631;51.024;13.826;2023-05-10T00:44:24;12.90;50.80
1277;DHT22;631;51.024;13.826;2023-05-10T00:46:51;12.90;50.80
1277;DHT22;631;51.024;13.826;2023-05-10T00:49:16;12.90;50.80
1277;DHT22;631;51.024;13.826;2023-05-10T00:51:42;12.90;51.00
1277;DHT22;631;51.024;13.826;2023-05-10T00:54:12;12.80;51.10
1277;DHT22;631;51.024;13.826;2023-05-10T00:56:39;12.70;51.10
1277;DHT22;631;51.024;13.826;2023-05-10T00:59:05;12.70;51.30
1277;DHT22;631;51.024;13.826;2023-05-10T01:01:31;12.70;51.60
1277;DHT22;631;51.024;13.826;2023-05-10T01:03:58;12.60;51.70
1277;DHT22;631;51.024;13.826;2023-05-10T01:06:24;12.50;51.70
1277;DHT22;631;51.024;13.826;2023-05-10T01:08:49;12.50;52.00
1277;DHT22;631;51.024;13.826;2023-05-10T01:11:15;12.50;52.10
1277;DHT22;631;51.024;13.826;2023-05-10T01:13:42;12.50;52.30
1277;DHT22;631;51.024;13.826;2023-05-10T01:16:08;12.40;52.30
1277;DHT22;631;51.024;13.826;2023-05-10T01:18:38;12.40;52.30
1277;DHT22;631;51.024;13.826;2023-05-10T01:21:16;12.40;52.50
1277;DHT22;631;51.024;13.826;2023-05-10T01:24:23;12.40;52.50
1277;DHT22;631;51.024;13.826;2023-05-10T01:35:39;12.30;53.40
1277;DHT22;631;51.024;13.826;2023-05-10T01:38:22;12.20;53.50
1277;DHT22;631;51.024;13.826;2023-05-10T01:43:23;12.10;54.10
1277;DHT22;631;51.024;13.826;2023-05-10T01:45:59;12.10;54.40
1277;DHT22;631;51.024;13.826;2023-05-10T01:48:27;12.10;54.60
1277;DHT22;631;51.024;13.826;2023-05-10T01:50:55;12.00;54.60
1277;DHT22;631;51.024;13.826;2023-05-10T01:53:22;12.00;54.80
1277;DHT22;631;51.024;13.826;2023-05-10T01:55:50;12.00;55.00
1277;DHT22;631;51.024;13.826;2023-05-10T01:58:22;12.00;55.20
1277;DHT22;631;51.024;13.826;2023-05-10T02:00:49;12.00;55.40
1277;DHT22;631;51.024;13.826;2023-05-10T02:03:16;12.00;55.50
1277;DHT22;631;51.024;13.826;2023-05-10T02:05:44;12.00;55.80
1277;DHT22;631;51.024;13.826;2023-05-10T02:08:11;12.00;55.90
1277;DHT22;631;51.024;13.826;2023-05-10T02:10:39;11.90;56.10
1277;DHT22;631;51.024;13.826;2023-05-10T02:13:06;11.90;56.30
1277;DHT22;631;51.024;13.826;2023-05-10T02:15:33;11.90;56.60
1277;DHT22;631;51.024;13.826;2023-05-10T02:18:00;11.80;56.80
1277;DHT22;631;51.024;13.826;2023-05-10T02:20:27;11.80;56.80
1277;DHT22;631;51.024;13.826;2023-05-10T02:22:55;11.80;57.20
1277;DHT22;631;51.024;13.826;2023-05-10T02:25:22;11.80;57.40
1277;DHT22;631;51.024;13.826;2023-05-10T02:27:48;11.80;57.70
1277;DHT22;631;51.024;13.826;2023-05-10T02:30:15;11.70;57.90
1277;DHT22;631;51.024;13.826;2023-05-10T02:32:41;11.70;58.20
1277;DHT22;631;51.024;13.826;2023-05-10T02:35:09;11.70;59.00
1277;DHT22;631;51.024;13.826;2023-05-10T02:37:37;11.70;58.90
1277;DHT22;631;51.024;13.826;2023-05-10T02:40:04;11.70;59.10
1277;DHT22;631;51.024;13.826;2023-05-10T02:42:35;11.70;59.20
1277;DHT22;631;51.024;13.826;2023-05-10T02:45:03;11.60;59.60
1277;DHT22;631;51.024;13.826;2023-05-10T02:47:30;11.60;59.80
1277;DHT22;631;51.024;13.826;2023-05-10T02:49:56;11.60;60.30
1277;DHT22;631;51.024;13.826;2023-05-10T02:52:25;11.50;60.60
1277;DHT22;631;51.024;13.826;2023-05-10T02:54:55;11.50;61.10
1277;DHT22;631;51.024;13.826;2023-05-10T02:57:30;11.60;61.80
1277;DHT22;631;51.024;13.826;2023-05-10T02:59:57;11.50;62.10
1277;DHT22;631;51.024;13.826;2023-05-10T03:02:22;11.50;62.70
1277;DHT22;631;51.024;13.826;2023-05-10T03:04:48;11.50;63.20
1277;DHT22;631;51.024;13.826;2023-05-10T03:07:14;11.40;63.30
1277;DHT22;631;51.024;13.826;2023-05-10T03:09:40;11.40;63.70
1277;DHT22;631;51.024;13.826;2023-05-10T03:12:28;11.40;64.00
1277;DHT22;631;51.024;13.826;2023-05-10T03:20:26;11.40;65.30
1277;DHT22;631;51.024;13.826;2023-05-10T03:23:07;11.40;65.60
1277;DHT22;631;51.024;13.826;2023-05-10T03:25:33;11.40;66.10
1277;DHT22;631;51.024;13.826;2023-05-10T03:28:01;11.40;66.30
1277;DHT22;631;51.024;13.826;2023-05-10T03:30:29;11.30;66.80
1277;DHT22;631;51.024;13.826;2023-05-10T03:32:55;11.30;67.00
1277;DHT22;631;51.024;13.826;2023-05-10T03:35:20;11.30;67.20
1277;DHT22;631;51.024;13.826;2023-05-10T03:37:46;11.40;67.60
1277;DHT22;631;51.024;13.826;2023-05-10T03:40:12;11.30;67.80
1277;DHT22;631;51.024;13.826;2023-05-10T03:42:38;11.40;67.90
1277;DHT22;631;51.024;13.826;2023-05-10T03:45:04;11.40;68.20
1277;DHT22;631;51.024;13.826;2023-05-10T03:47:29;11.30;68.40
1277;DHT22;631;51.024;13.826;2023-05-10T03:49:55;11.30;68.90
1277;DHT22;631;51.024;13.826;2023-05-10T03:52:21;11.30;69.10
1277;DHT22;631;51.024;13.826;2023-05-10T03:54:46;11.30;69.50
1277;DHT22;631;51.024;13.826;2023-05-10T03:57:12;11.30;69.60
1277;DHT22;631;51.024;13.826;2023-05-10T03:59:37;11.40;69.80
1277;DHT22;631;51.024;13.826;2023-05-10T04:02:03;11.40;70.10
1277;DHT22;631;51.024;13.826;2023-05-10T04:04:28;11.30;70.20
1277;DHT22;631;51.024;13.826;2023-05-10T04:06:54;11.30;70.40
1277;DHT22;631;51.024;13.826;2023-05-10T04:09:20;11.40;70.90
1277;DHT22;631;51.024;13.826;2023-05-10T04:11:45;11.40;71.00
1277;DHT22;631;51.024;13.826;2023-05-10T04:14:11;11.30;71.10
1277;DHT22;631;51.024;13.826;2023-05-10T04:16:37;11.40;71.70
1277;DHT22;631;51.024;13.826;2023-05-10T04:19:02;11.40;72.40
1277;DHT22;631;51.024;13.826;2023-05-10T04:21:29;11.50;72.60
1277;DHT22;631;51.024;13.826;2023-05-10T04:23:54;11.50;72.60
1277;DHT22;631;51.024;13.826;2023-05-10T04:26:20;11.50;72.30
1277;DHT22;631;51.024;13.826;2023-05-10T04:28:45;11.60;72.70
1277;DHT22;631;51.024;13.826;2023-05-10T04:31:12;11.60;72.20
1277;DHT22;631;51.024;13.826;2023-05-10T04:33:37;11.60;72.90
1277;DHT22;631;51.024;13.826;2023-05-10T04:36:03;11.70;72.60
1277;DHT22;631;51.024;13.826;2023-05-10T04:38:29;11.80;72.50
1277;DHT22;631;51.024;13.826;2023-05-10T04:41:09;11.70;72.20
1277;DHT22;631;51.024;13.826;2023-05-10T04:43:35;11.80;72.30
1277;DHT22;631;51.024;13.826;2023-05-10T04:46:01;11.80;72.70
1277;DHT22;631;51.024;13.826;2023-05-10T04:48:27;11.80;73.00
1277;DHT22;631;51.024;13.826;2023-05-10T04:50:52;11.80;72.80
1277;DHT22;631;51.024;13.826;2023-05-10T04:53:18;11.80;72.90
1277;DHT22;631;51.024;13.826;2023-05-10T04:55:44;11.80;73.60
1277;DHT22;631;51.024;13.826;2023-05-10T04:58:09;11.80;73.90
1277;DHT22;631;51.024;13.826;2023-05-10T05:00:35;11.90;73.60
1277;DHT22;631;51.024;13.826;2023-05-10T05:03:01;11.90;73.50
1277;DHT22;631;51.024;13.826;2023-05-10T05:05:27;12.00;73.20
1277;DHT22;631;51.024;13.826;2023-05-10T05:07:52;12.10;74.10
1277;DHT22;631;51.024;13.826;2023-05-10T05:10:18;12.10;73.40
1277;DHT22;631;51.024;13.826;2023-05-10T05:12:43;12.10;73.40
1277;DHT22;631;51.024;13.826;2023-05-10T05:15:09;12.20;73.70
1277;DHT22;631;51.024;13.826;2023-05-10T05:17:36;12.20;73.50
1277;DHT22;631;51.024;13.826;2023-05-10T05:20:02;12.30;74.30
1277;DHT22;631;51.024;13.826;2023-05-10T05:22:28;12.40;74.50
1277;DHT22;631;51.024;13.826;2023-05-10T05:24:54;12.40;73.60
1277;DHT22;631;51.024;13.826;2023-05-10T05:27:20;12.50;73.50
1277;DHT22;631;51.024;13.826;2023-05-10T05:29:53;12.50;73.30
1277;DHT22;631;51.024;13.826;2023-05-10T05:32:19;12.60;72.70
1277;DHT22;631;51.024;13.826;2023-05-10T05:34:45;12.70;72.40
1277;DHT22;631;51.024;13.826;2023-05-10T05:37:19;12.70;72.30
1277;DHT22;631;51.024;13.826;2023-05-10T05:39:45;12.80;72.70
1277;DHT22;631;51.024;13.826;2023-05-10T05:42:11;12.90;71.80
1277;DHT22;631;51.024;13.826;2023-05-10T05:44:38;12.90;71.50
1277;DHT22;631;51.024;13.826;2023-05-10T05:47:03;13.00;71.80
1277;DHT22;631;51.024;13.826;2023-05-10T05:49:29;13.10;71.00
1277;DHT22;631;51.024;13.826;2023-05-10T05:51:59;13.20;70.60
1277;DHT22;631;51.024;13.826;2023-05-10T05:54:24;13.20;70.40
1277;DHT22;631;51.024;13.826;2023-05-10T05:56:50;13.30;70.10
1277;DHT22;631;51.024;13.826;2023-05-10T05:59:16;13.40;69.90
1277;DHT22;631;51.024;13.826;2023-05-10T06:01:41;13.50;69.80
1277;DHT22;631;51.024;13.826;2023-05-10T06:04:07;13.50;69.40
1277;DHT22;631;51.024;13.826;2023-05-10T06:06:32;13.60;68.80
1277;DHT22;631;51.024;13.826;2023-05-10T06:08:58;13.70;68.40
1277;DHT22;631;51.024;13.826;2023-05-10T06:11:24;13.70;68.50
1277;DHT22;631;51.024;13.826;2023-05-10T06:13:50;13.80;67.90
1277;DHT22;631;51.024;13.826;2023-05-10T06:16:16;13.90;68.20
1277;DHT22;631;51.024;13.826;2023-05-10T06:18:43;14.00;67.70
1277;DHT22;631;51.024;13.826;2023-05-10T06:21:08;14.00;67.70
1277;DHT22;631;51.024;13.826;2023-05-10T06:23:34;14.10;66.10
1277;DHT22;631;51.024;13.826;2023-05-10T06:26:01;14.20;66.50
1277;DHT22;631;51.024;13.826;2023-05-10T06:28:26;14.20;65.70
1277;DHT22;631;51.024;13.826;2023-05-10T06:30:52;14.40;65.10
1277;DHT22;631;51.024;13.826;2023-05-10T06:33:17;14.30;64.60
1277;DHT22;631;51.024;13.826;2023-05-10T06:35:43;14.40;64.50
1277;DHT22;631;51.024;13.826;2023-05-10T06:38:09;14.50;64.50
1277;DHT22;631;51.024;13.826;2023-05-10T06:40:34;14.50;64.40
1277;DHT22;631;51.024;13.826;2023-05-10T06:43:01;14.60;64.50
1277;DHT22;631;51.024;13.826;2023-05-10T06:45:26;14.60;64.20
1277;DHT22;631;51.024;13.826;2023-05-10T06:47:52;14.70;64.60
1277;DHT22;631;51.024;13.826;2023-05-10T06:50:18;14.80;64.90
1277;DHT22;631;51.024;13.826;2023-05-10T06:52:43;14.90;63.90
1277;DHT22;631;51.024;13.826;2023-05-10T06:55:10;15.00;63.90
1277;DHT22;631;51.024;13.826;2023-05-10T06:57:36;15.00;62.40
1277;DHT22;631;51.024;13.826;2023-05-10T07:00:02;15.00;62.20
1277;DHT22;631;51.024;13.826;2023-05-10T07:02:29;15.10;62.00
1277;DHT22;631;51.024;13.826;2023-05-10T07:04:54;15.00;61.30
1277;DHT22;631;51.024;13.826;2023-05-10T07:07:20;15.10;61.10
1277;DHT22;631;51.024;13.826;2023-05-10T07:09:46;15.20;61.10
1277;DHT22;631;51.024;13.826;2023-05-10T07:12:12;15.20;60.60
1277;DHT22;631;51.024;13.826;2023-05-10T07:14:37;15.30;61.20
1277;DHT22;631;51.024;13.826;2023-05-10T07:17:03;15.30;61.50
1277;DHT22;631;51.024;13.826;2023-05-10T07:19:29;15.50;62.20
1277;DHT22;631;51.024;13.826;2023-05-10T07:21:55;15.60;61.70
1277;DHT22;631;51.024;13.826;2023-05-10T07:24:20;15.80;61.00
1277;DHT22;631;51.024;13.826;2023-05-10T07:26:46;15.80;59.90
1277;DHT22;631;51.024;13.826;2023-05-10T07:29:12;15.80;59.60
1277;DHT22;631;51.024;13.826;2023-05-10T07:31:37;15.90;59.80
1277;DHT22;631;51.024;13.826;2023-05-10T07:34:03;16.00;59.50
1277;DHT22;631;51.024;13.826;2023-05-10T07:36:29;16.10;59.80
1277;DHT22;631;51.024;13.826;2023-05-10T07:38:54;16.20;59.70
1277;DHT22;631;51.024;13.826;2023-05-10T07:41:20;16.30;59.70
1277;DHT22;631;51.024;13.826;2023-05-10T07:43:46;16.40;59.70
1277;DHT22;631;51.024;13.826;2023-05-10T07:46:12;16.50;58.80
1277;DHT22;631;51.024;13.826;2023-05-10T07:48:37;16.60;59.00
1277;DHT22;631;51.024;13.826;2023-05-10T07:51:03;16.70;58.50
1277;DHT22;631;51.024;13.826;2023-05-10T07:53:28;16.60;57.90
1277;DHT22;631;51.024;13.826;2023-05-10T07:55:57;16.70;58.50
1277;DHT22;631;51.024;13.826;2023-05-10T07:58:24;16.90;58.00
1277;DHT22;631;51.024;13.826;2023-05-10T08:00:49;17.00;57.10
1277;DHT22;631;51.024;13.826;2023-05-10T08:03:15;17.10;56.80
1277;DHT22;631;51.024;13.826;2023-05-10T08:05:41;17.20;56.70
1277;DHT22;631;51.024;13.826;2023-05-10T08:08:06;17.20;56.80
1277;DHT22;631;51.024;13.826;2023-05-10T08:10:32;17.30;56.00
1277;DHT22;631;51.024;13.826;2023-05-10T08:12:58;17.40;56.40
1277;DHT22;631;51.024;13.826;2023-05-10T08:15:24;17.60;56.40
1277;DHT22;631;51.024;13.826;2023-05-10T08:17:51;17.50;55.30
1277;DHT22;631;51.024;13.826;2023-05-10T08:20:17;17.60;55.90
1277;DHT22;631;51.024;13.826;2023-05-10T08:22:45;17.80;55.50
1277;DHT22;631;51.024;13.826;2023-05-10T08:25:10;17.90;55.50
1277;DHT22;631;51.024;13.826;2023-05-10T08:27:36;18.00;54.30
1277;DHT22;631;51.024;13.826;2023-05-10T08:30:02;18.00;54.00
1277;DHT22;631;51.024;13.826;2023-05-10T08:32:27;18.00;54.20
1277;DHT22;631;51.024;13.826;2023-05-10T08:34:53;18.10;54.10
1277;DHT22;631;51.024;13.826;2023-05-10T08:37:19;18.30;53.50
1277;DHT22;631;51.024;13.826;2023-05-10T08:39:44;18.40;53.10
1277;DHT22;631;51.024;13.826;2023-05-10T08:42:16;18.50;52.60
1277;DHT22;631;51.024;13.826;2023-05-10T08:44:48;18.60;52.20
1277;DHT22;631;51.024;13.826;2023-05-10T08:47:16;18.80;52.20
1277;DHT22;631;51.024;13.826;2023-05-10T08:49:43;18.90;51.60
1277;DHT22;631;51.024;13.826;2023-05-10T08:52:12;19.10;51.90
1277;DHT22;631;51.024;13.826;2023-05-10T08:54:38;19.30;51.40
1277;DHT22;631;51.024;13.826;2023-05-10T08:57:04;19.50;49.90
1277;DHT22;631;51.024;13.826;2023-05-10T08:59:30;19.70;49.60
1277;DHT22;631;51.024;13.826;2023-05-10T09:01:59;20.10;50.30
1277;DHT22;631;51.024;13.826;2023-05-10T09:04:25;20.50;48.60
1277;DHT22;631;51.024;13.826;2023-05-10T09:06:51;20.80;47.90
1277;DHT22;631;51.024;13.826;2023-05-10T09:09:17;21.10;46.90
1277;DHT22;631;51.024;13.826;2023-05-10T09:11:44;21.20;46.00
1277;DHT22;631;51.024;13.826;2023-05-10T09:14:10;21.30;45.60
1277;DHT22;631;51.024;13.826;2023-05-10T09:16:37;21.60;45.10
1277;DHT22;631;51.024;13.826;2023-05-10T09:19:03;21.40;43.80
1277;DHT22;631;51.024;13.826;2023-05-10T09:21:29;21.70;43.90
1277;DHT22;631;51.024;13.826;2023-05-10T09:23:56;21.80;43.30
1277;DHT22;631;51.024;13.826;2023-05-10T09:26:23;22.30;43.40
1277;DHT22;631;51.024;13.826;2023-05-10T09:28:54;22.80;42.30
1277;DHT22;631;51.024;13.826;2023-05-10T09:31:20;23.20;41.70
1277;DHT22;631;51.024;13.826;2023-05-10T09:33:46;23.30;40.00
1277;DHT22;631;51.024;13.826;2023-05-10T09:36:12;23.30;39.50
1277;DHT22;631;51.024;13.826;2023-05-10T09:38:51;23.50;39.60
1277;DHT22;631;51.024;13.826;2023-05-10T09:41:21;23.70;39.00
1277;DHT22;631;51.024;13.826;2023-05-10T09:43:47;23.80;38.20
1277;DHT22;631;51.024;13.826;2023-05-10T09:46:15;24.30;38.20
1277;DHT22;631;51.024;13.826;2023-05-10T09:48:43;24.30;37.50
1277;DHT22;631;51.024;13.826;2023-05-10T09:51:09;24.60;36.20
1277;DHT22;631;51.024;13.826;2023-05-10T09:53:35;25.20;36.00
1277;DHT22;631;51.024;13.826;2023-05-10T09:56:00;25.10;35.10
1277;DHT22;631;51.024;13.826;2023-05-10T09:58:26;25.30;34.90
1277;DHT22;631;51.024;13.826;2023-05-10T10:00:52;25.50;34.00
1277;DHT22;631;51.024;13.826;2023-05-10T10:03:20;25.10;32.90
1277;DHT22;631;51.024;13.826;2023-05-10T10:05:47;25.50;33.00
1277;DHT22;631;51.024;13.826;2023-05-10T10:08:14;25.60;33.50
1277;DHT22;631;51.024;13.826;2023-05-10T10:10:40;26.10;33.20
1277;DHT22;631;51.024;13.826;2023-05-10T10:13:06;25.50;32.00
1277;DHT22;631;51.024;13.826;2023-05-10T10:15:35;25.90;33.00
1277;DHT22;631;51.024;13.826;2023-05-10T10:18:01;25.30;31.90
1277;DHT22;631;51.024;13.826;2023-05-10T10:20:29;26.00;32.80
1277;DHT22;631;51.024;13.826;2023-05-10T10:22:55;26.20;31.50
1277;DHT22;631;51.024;13.826;2023-05-10T10:25:21;26.20;31.20
1277;DHT22;631;51.024;13.826;2023-05-10T10:36:21;27.40;30.90
1277;DHT22;631;51.024;13.826;2023-05-10T10:41:50;27.60;28.40
1277;DHT22;631;51.024;13.826;2023-05-10T10:52:15;28.30;28.30
1277;DHT22;631;51.024;13.826;2023-05-10T10:57:20;26.90;28.10
1277;DHT22;631;51.024;13.826;2023-05-10T10:59:49;26.60;28.50
1277;DHT22;631;51.024;13.826;2023-05-10T11:03:25;26.20;29.10
1277;DHT22;631;51.024;13.826;2023-05-10T11:05:50;25.50;30.80
1277;DHT22;631;51.024;13.826;2023-05-10T11:08:28;25.90;32.30
1277;DHT22;631;51.024;13.826;2023-05-10T11:15:54;26.00;29.70
1277;DHT22;631;51.024;13.826;2023-05-10T11:18:30;26.30;29.40
1277;DHT22;631;51.024;13.826;2023-05-10T11:21:00;26.20;29.30
1277;DHT22;631;51.024;13.826;2023-05-10T11:26:13;26.80;28.80
1277;DHT22;631;51.024;13.826;2023-05-10T11:28:46;27.30;28.20
1277;DHT22;631;51.024;13.826;2023-05-10T11:31:16;26.40;28.30
1277;DHT22;631;51.024;13.826;2023-05-10T11:33:53;26.70;28.80
1277;DHT22;631;51.024;13.826;2023-05-10T11:36:21;26.80;27.70
1277;DHT22;631;51.024;13.826;2023-05-10T11:38:47;26.50;27.30
1277;DHT22;631;51.024;13.826;2023-05-10T11:41:14;27.10;27.70
1277;DHT22;631;51.024;13.826;2023-05-10T11:43:41;27.80;28.00
1277;DHT22;631;51.024;13.826;2023-05-10T11:46:10;28.40;27.60
1277;DHT22;631;51.024;13.826;2023-05-10T11:48:37;28.30;26.90
1277;DHT22;631;51.024;13.826;2023-05-10T11:51:03;28.00;26.70
1277;DHT22;631;51.024;13.826;2023-05-10T11:53:31;28.70;27.30
1277;DHT22;631;51.024;13.826;2023-05-10T11:56:06;28.70;26.60
1277;DHT22;631;51.024;13.826;2023-05-10T11:58:32;28.50;26.30
1277;DHT22;631;51.024;13.826;2023-05-10T12:00:59;28.90;26.80
1277;DHT22;631;51.024;13.826;2023-05-10T12:03:25;27.40;25.70
1277;DHT22;631;51.024;13.826;2023-05-10T12:05:51;28.00;27.20
1277;DHT22;631;51.024;13.826;2023-05-10T12:08:27;28.20;26.60
1277;DHT22;631;51.024;13.826;2023-05-10T12:11:03;28.80;27.50
1277;DHT22;631;51.024;13.826;2023-05-10T12:13:28;29.40;25.70
1277;DHT22;631;51.024;13.826;2023-05-10T12:15:57;29.10;25.50
1277;DHT22;631;51.024;13.826;2023-05-10T12:18:24;29.40;25.60
1277;DHT22;631;51.024;13.826;2023-05-10T12:20:53;29.80;24.90
1277;DHT22;631;51.024;13.826;2023-05-10T12:23:20;29.80;25.00
1277;DHT22;631;51.024;13.826;2023-05-10T12:25:46;30.30;24.70
1277;DHT22;631;51.024;13.826;2023-05-10T12:28:12;30.10;23.70
1277;DHT22;631;51.024;13.826;2023-05-10T12:30:38;30.50;24.50
1277;DHT22;631;51.024;13.826;2023-05-10T12:33:12;30.40;23.00
1277;DHT22;631;51.024;13.826;2023-05-10T12:35:46;30.30;23.30
1277;DHT22;631;51.024;13.826;2023-05-10T12:38:34;29.00;23.70
1277;DHT22;631;51.024;13.826;2023-05-10T12:41:03;28.50;25.50
1277;DHT22;631;51.024;13.826;2023-05-10T12:43:29;28.20;25.30
1277;DHT22;631;51.024;13.826;2023-05-10T12:45:55;28.70;25.20
1277;DHT22;631;51.024;13.826;2023-05-10T12:48:21;28.60;24.50
1277;DHT22;631;51.024;13.826;2023-05-10T12:50:47;27.90;25.10
1277;DHT22;631;51.024;13.826;2023-05-10T12:53:14;27.90;25.70
1277;DHT22;631;51.024;13.826;2023-05-10T12:55:44;28.30;25.80
1277;DHT22;631;51.024;13.826;2023-05-10T12:58:09;28.40;25.60
1277;DHT22;631;51.024;13.826;2023-05-10T13:00:35;28.10;25.60
1277;DHT22;631;51.024;13.826;2023-05-10T13:03:06;28.30;25.60
1277;DHT22;631;51.024;13.826;2023-05-10T13:05:32;27.90;25.80
1277;DHT22;631;51.024;13.826;2023-05-10T13:07:58;27.50;26.80
1277;DHT22;631;51.024;13.826;2023-05-10T13:10:24;27.30;26.70
1277;DHT22;631;51.024;13.826;2023-05-10T13:12:50;27.20;27.50
1277;DHT22;631;51.024;13.826;2023-05-10T13:15:16;27.50;27.80
1277;DHT22;631;51.024;13.826;2023-05-10T13:17:42;27.50;27.50
1277;DHT22;631;51.024;13.826;2023-05-10T13:20:08;27.70;27.60
1277;DHT22;631;51.024;13.826;2023-05-10T13:22:35;27.60;26.80
1277;DHT22;631;51.024;13.826;2023-05-10T13:25:01;26.60;27.90
1277;DHT22;631;51.024;13.826;2023-05-10T13:27:27;26.40;28.30
1277;DHT22;631;51.024;13.826;2023-05-10T13:29:53;26.10;28.30
1277;DHT22;631;51.024;13.826;2023-05-10T13:32:18;25.90;29.00
1277;DHT22;631;51.024;13.826;2023-05-10T13:34:44;25.50;29.30
1277;DHT22;631;51.024;13.826;2023-05-10T13:37:10;25.40;29.60
1277;DHT22;631;51.024;13.826;2023-05-10T13:39:35;25.10;29.60
1277;DHT22;631;51.024;13.826;2023-05-10T13:42:03;24.50;30.60
1277;DHT22;631;51.024;13.826;2023-05-10T13:44:28;24.00;31.30
1277;DHT22;631;51.024;13.826;2023-05-10T13:46:55;24.20;33.10
1277;DHT22;631;51.024;13.826;2023-05-10T13:49:21;24.10;31.70
1277;DHT22;631;51.024;13.826;2023-05-10T13:51:47;24.30;32.20
1277;DHT22;631;51.024;13.826;2023-05-10T13:54:13;24.50;31.80
1277;DHT22;631;51.024;13.826;2023-05-10T13:56:39;25.10;32.60
1277;DHT22;631;51.024;13.826;2023-05-10T13:59:05;25.40;30.40
1277;DHT22;631;51.024;13.826;2023-05-10T14:01:31;25.60;30.40
1277;DHT22;631;51.024;13.826;2023-05-10T14:03:57;26.20;30.00
1277;DHT22;631;51.024;13.826;2023-05-10T14:06:22;26.80;29.20
1277;DHT22;631;51.024;13.826;2023-05-10T14:08:48;26.80;29.10
1277;DHT22;631;51.024;13.826;2023-05-10T14:11:14;26.80;29.10
1277;DHT22;631;51.024;13.826;2023-05-10T14:13:40;26.50;28.30
1277;DHT22;631;51.024;13.826;2023-05-10T14:16:05;26.30;29.00
1277;DHT22;631;51.024;13.826;2023-05-10T14:18:31;26.50;29.20
1277;DHT22;631;51.024;13.826;2023-05-10T14:20:57;26.10;28.80
1277;DHT22;631;51.024;13.826;2023-05-10T14:23:23;26.10;29.10
1277;DHT22;631;51.024;13.826;2023-05-10T14:25:53;25.70;29.30
1277;DHT22;631;51.024;13.826;2023-05-10T14:28:19;25.40;29.20
1277;DHT22;631;51.024;13.826;2023-05-10T14:30:46;25.40;29.10
1277;DHT22;631;51.024;13.826;2023-05-10T14:33:12;24.70;30.10
1277;DHT22;631;51.024;13.826;2023-05-10T14:35:38;24.30;30.50
1277;DHT22;631;51.024;13.826;2023-05-10T14:38:03;23.80;30.90
1277;DHT22;631;51.024;13.826;2023-05-10T14:40:29;23.80;31.50
1277;DHT22;631;51.024;13.826;2023-05-10T14:42:55;23.60;32.20
1277;DHT22;631;51.024;13.826;2023-05-10T14:45:22;23.60;32.70
1277;DHT22;631;51.024;13.826;2023-05-10T14:47:48;23.50;32.70
1277;DHT22;631;51.024;13.826;2023-05-10T14:50:14;23.20;33.50
1277;DHT22;631;51.024;13.826;2023-05-10T14:52:40;23.30;33.90
1277;DHT22;631;51.024;13.826;2023-05-10T14:55:06;23.10;33.20
1277;DHT22;631;51.024;13.826;2023-05-10T14:57:32;22.80;33.70
1277;DHT22;631;51.024;13.826;2023-05-10T14:59:58;22.70;34.20
1277;DHT22;631;51.024;13.826;2023-05-10T15:02:24;22.70;34.20
1277;DHT22;631;51.024;13.826;2023-05-10T15:04:49;22.60;34.80
1277;DHT22;631;51.024;13.826;2023-05-10T15:07:16;22.50;34.70
1277;DHT22;631;51.024;13.826;2023-05-10T15:09:46;22.50;34.90
1277;DHT22;631;51.024;13.826;2023-05-10T15:12:12;22.30;35.20
1277;DHT22;631;51.024;13.826;2023-05-10T15:14:37;22.40;35.50
1277;DHT22;631;51.024;13.826;2023-05-10T15:17:05;22.40;35.40
1277;DHT22;631;51.024;13.826;2023-05-10T15:19:31;22.40;35.60
1277;DHT22;631;51.024;13.826;2023-05-10T15:21:58;22.30;35.90
1277;DHT22;631;51.024;13.826;2023-05-10T15:24:24;22.20;36.30
1277;DHT22;631;51.024;13.826;2023-05-10T15:26:50;22.00;36.90
1277;DHT22;631;51.024;13.826;2023-05-10T15:29:15;21.90;37.10
1277;DHT22;631;51.024;13.826;2023-05-10T15:31:48;22.00;36.40
1277;DHT22;631;51.024;13.826;2023-05-10T15:34:14;21.90;36.50
1277;DHT22;631;51.024;13.826;2023-05-10T15:36:40;21.90;36.90
1277;DHT22;631;51.024;13.826;2023-05-10T15:39:06;21.80;37.20
1277;DHT22;631;51.024;13.826;2023-05-10T15:41:31;21.90;37.20
1277;DHT22;631;51.024;13.826;2023-05-10T15:43:58;22.00;38.80
1277;DHT22;631;51.024;13.826;2023-05-10T15:46:27;21.90;42.20
1277;DHT22;631;51.024;13.826;2023-05-10T15:48:53;21.80;45.30
1277;DHT22;631;51.024;13.826;2023-05-10T15:51:18;21.70;46.10
1277;DHT22;631;51.024;13.826;2023-05-10T15:53:45;21.50;47.00
1277;DHT22;631;51.024;13.826;2023-05-10T15:56:10;21.50;47.70
1277;DHT22;631;51.024;13.826;2023-05-10T15:58:37;21.40;48.10
1277;DHT22;631;51.024;13.826;2023-05-10T16:01:03;21.30;48.80
1277;DHT22;631;51.024;13.826;2023-05-10T16:03:34;21.40;49.20
1277;DHT22;631;51.024;13.826;2023-05-10T16:06:00;21.30;49.40
1277;DHT22;631;51.024;13.826;2023-05-10T16:08:27;21.10;50.10
1277;DHT22;631;51.024;13.826;2023-05-10T16:10:55;20.90;50.80
1277;DHT22;631;51.024;13.826;2023-05-10T16:13:21;20.80;51.40
1277;DHT22;631;51.024;13.826;2023-05-10T16:15:46;20.80;51.90
1277;DHT22;631;51.024;13.826;2023-05-10T16:18:12;20.40;52.10
1277;DHT22;631;51.024;13.826;2023-05-10T16:20:38;20.30;52.90
1277;DHT22;631;51.024;13.826;2023-05-10T16:23:05;20.10;53.30
1277;DHT22;631;51.024;13.826;2023-05-10T16:25:32;20.10;53.60
1277;DHT22;631;51.024;13.826;2023-05-10T16:27:58;20.10;54.00
1277;DHT22;631;51.024;13.826;2023-05-10T16:30:24;20.10;54.20
1277;DHT22;631;51.024;13.826;2023-05-10T16:32:52;20.10;54.40
1277;DHT22;631;51.024;13.826;2023-05-10T16:35:17;20.10;54.70
1277;DHT22;631;51.024;13.826;2023-05-10T16:37:43;20.10;54.90
1277;DHT22;631;51.024;13.826;2023-05-10T16:40:09;20.20;54.80
1277;DHT22;631;51.024;13.826;2023-05-10T16:42:34;20.20;54.90
1277;DHT22;631;51.024;13.826;2023-05-10T16:45:01;20.10;54.90
1277;DHT22;631;51.024;13.826;2023-05-10T16:47:32;20.10;54.90